KMGM

Montgomery Regional (Dannelly Field) Airport

Montgomery, Alabama, USA
METAR KMGM 212353Z 15008KT 10SM CLR 26/16 A3027 RMK AO2 SLP247 T02560161 10294 20256 53003
Observed Flight Rules
Feb-21 @ 23:53 UTC (5 hours ago) Visual Flight Rules
Wind Visibility Clouds
150° at 8 knots 10 miles
  • Clear skies
Temperatures Readings
Current 26°C / 79°F
Dewpoint 16°C / 61°F
Humidity 54%
Altimeter 30.27" Hg
Pressure 1024.7 hPa
Elevation 63
METAR KMGM 212353Z 15008KT 10SM CLR 26/16 A3027 RMK AO2 SLP247 T02560161 10294 20256 53003
Observed Flight Rules
Feb-21 @ 23:53 UTC
(5 hours ago)
VFR
Wind Visibility
150° at 8 knots 10 miles
Clouds
  • Clear skies
Temperature Dewpoint
26°C / 79°F 16°C / 61°F
Humidity Altimeter Pressure
54% 30.27" Hg 1024.7 hPa